sensor_id;sensor_type;location;lat;lon;timestamp;temperature;humidity
31725;DHT22;18306;40.960;14.836;2023-05-20T00:00:10;19.80;99.90
31725;DHT22;18306;40.960;14.836;2023-05-20T00:02:38;19.70;99.90
31725;DHT22;18306;40.960;14.836;2023-05-20T00:05:05;19.70;99.90
31725;DHT22;18306;40.960;14.836;2023-05-20T00:07:33;19.80;99.90
31725;DHT22;18306;40.960;14.836;2023-05-20T00:10:00;19.80;99.90
31725;DHT22;18306;40.960;14.836;2023-05-20T00:12:27;19.70;99.90
31725;DHT22;18306;40.960;14.836;2023-05-20T00:14:54;19.60;99.90
31725;DHT22;18306;40.960;14.836;2023-05-20T00:17:21;19.40;99.90
31725;DHT22;18306;40.960;14.836;2023-05-20T00:19:48;19.30;99.90
31725;DHT22;18306;40.960;14.836;2023-05-20T00:22:16;19.20;99.90
31725;DHT22;18306;40.960;14.836;2023-05-20T00:24:43;19.30;99.90
31725;DHT22;18306;40.960;14.836;2023-05-20T00:27:10;19.30;99.90
31725;DHT22;18306;40.960;14.836;2023-05-20T00:29:37;19.30;99.90
31725;DHT22;18306;40.960;14.836;2023-05-20T00:32:04;19.50;99.90
31725;DHT22;18306;40.960;14.836;2023-05-20T00:34:32;19.50;99.90
31725;DHT22;18306;40.960;14.836;2023-05-20T00:36:59;19.50;99.90
31725;DHT22;18306;40.960;14.836;2023-05-20T00:39:26;19.60;99.90
31725;DHT22;18306;40.960;14.836;2023-05-20T00:41:53;19.80;99.90
31725;DHT22;18306;40.960;14.836;2023-05-20T00:44:20;19.90;99.90
31725;DHT22;18306;40.960;14.836;2023-05-20T00:46:49;19.70;99.90
31725;DHT22;18306;40.960;14.836;2023-05-20T00:49:20;19.70;99.90
31725;DHT22;18306;40.960;14.836;2023-05-20T00:51:49;19.70;99.90
31725;DHT22;18306;40.960;14.836;2023-05-20T00:54:17;19.70;99.90
31725;DHT22;18306;40.960;14.836;2023-05-20T00:56:44;19.50;99.90
31725;DHT22;18306;40.960;14.836;2023-05-20T00:59:12;19.30;99.90
31725;DHT22;18306;40.960;14.836;2023-05-20T01:01:39;19.20;99.90
31725;DHT22;18306;40.960;14.836;2023-05-20T01:04:07;19.10;99.90
31725;DHT22;18306;40.960;14.836;2023-05-20T01:06:35;19.20;99.90
31725;DHT22;18306;40.960;14.836;2023-05-20T01:09:03;19.20;99.90
31725;DHT22;18306;40.960;14.836;2023-05-20T01:11:36;19.40;99.90
31725;DHT22;18306;40.960;14.836;2023-05-20T01:14:07;19.30;99.90
31725;DHT22;18306;40.960;14.836;2023-05-20T01:16:35;18.90;99.90
31725;DHT22;18306;40.960;14.836;2023-05-20T01:19:10;18.90;99.90
31725;DHT22;18306;40.960;14.836;2023-05-20T01:21:45;18.90;99.90
31725;DHT22;18306;40.960;14.836;2023-05-20T01:24:14;18.70;99.90
31725;DHT22;18306;40.960;14.836;2023-05-20T01:26:42;18.80;99.90
31725;DHT22;18306;40.960;14.836;2023-05-20T01:29:17;18.80;99.90
31725;DHT22;18306;40.960;14.836;2023-05-20T01:31:45;18.80;99.90
31725;DHT22;18306;40.960;14.836;2023-05-20T01:34:13;18.80;99.90
31725;DHT22;18306;40.960;14.836;2023-05-20T01:36:40;18.60;99.90
31725;DHT22;18306;40.960;14.836;2023-05-20T01:39:08;18.50;99.90
31725;DHT22;18306;40.960;14.836;2023-05-20T01:41:36;18.60;99.90
31725;DHT22;18306;40.960;14.836;2023-05-20T01:44:03;18.70;99.90
31725;DHT22;18306;40.960;14.836;2023-05-20T01:46:34;18.80;99.90
31725;DHT22;18306;40.960;14.836;2023-05-20T01:49:02;18.70;99.90
31725;DHT22;18306;40.960;14.836;2023-05-20T01:51:29;18.60;99.90
31725;DHT22;18306;40.960;14.836;2023-05-20T01:53:59;18.60;99.90
31725;DHT22;18306;40.960;14.836;2023-05-20T01:56:26;18.80;99.90
31725;DHT22;18306;40.960;14.836;2023-05-20T01:58:53;18.90;99.90
31725;DHT22;18306;40.960;14.836;2023-05-20T02:01:21;19.10;99.90
31725;DHT22;18306;40.960;14.836;2023-05-20T02:03:48;19.00;99.90
31725;DHT22;18306;40.960;14.836;2023-05-20T02:06:15;19.00;99.90
31725;DHT22;18306;40.960;14.836;2023-05-20T02:08:48;19.00;99.90
31725;DHT22;18306;40.960;14.836;2023-05-20T02:11:15;19.20;99.90
31725;DHT22;18306;40.960;14.836;2023-05-20T02:13:43;19.30;99.90
31725;DHT22;18306;40.960;14.836;2023-05-20T02:16:10;18.70;99.90
31725;DHT22;18306;40.960;14.836;2023-05-20T02:18:37;19.10;99.90
31725;DHT22;18306;40.960;14.836;2023-05-20T02:21:04;18.90;99.90
31725;DHT22;18306;40.960;14.836;2023-05-20T02:23:34;18.90;99.90
31725;DHT22;18306;40.960;14.836;2023-05-20T02:26:02;19.30;99.90
31725;DHT22;18306;40.960;14.836;2023-05-20T02:28:29;19.10;99.90
31725;DHT22;18306;40.960;14.836;2023-05-20T02:30:56;18.90;99.90
31725;DHT22;18306;40.960;14.836;2023-05-20T02:33:23;18.90;99.90
31725;DHT22;18306;40.960;14.836;2023-05-20T02:35:51;18.80;99.90
31725;DHT22;18306;40.960;14.836;2023-05-20T02:38:19;18.70;99.90
31725;DHT22;18306;40.960;14.836;2023-05-20T02:40:46;18.70;99.90
31725;DHT22;18306;40.960;14.836;2023-05-20T02:43:13;18.90;99.90
31725;DHT22;18306;40.960;14.836;2023-05-20T02:45:40;19.00;99.90
31725;DHT22;18306;40.960;14.836;2023-05-20T02:48:10;19.20;99.90
31725;DHT22;18306;40.960;14.836;2023-05-20T02:50:40;19.20;99.90
31725;DHT22;18306;40.960;14.836;2023-05-20T02:53:07;19.40;99.90
31725;DHT22;18306;40.960;14.836;2023-05-20T02:55:35;19.50;99.90
31725;DHT22;18306;40.960;14.836;2023-05-20T02:58:02;19.50;99.90
31725;DHT22;18306;40.960;14.836;2023-05-20T03:00:35;19.50;99.90
31725;DHT22;18306;40.960;14.836;2023-05-20T03:03:06;19.30;99.90
31725;DHT22;18306;40.960;14.836;2023-05-20T03:05:33;19.40;99.90
31725;DHT22;18306;40.960;14.836;2023-05-20T03:08:08;19.60;99.90
31725;DHT22;18306;40.960;14.836;2023-05-20T03:10:36;19.70;99.90
31725;DHT22;18306;40.960;14.836;2023-05-20T03:13:05;19.60;99.90
31725;DHT22;18306;40.960;14.836;2023-05-20T03:15:37;19.60;99.90
31725;DHT22;18306;40.960;14.836;2023-05-20T03:18:06;19.50;99.90
31725;DHT22;18306;40.960;14.836;2023-05-20T03:20:34;19.60;99.90
31725;DHT22;18306;40.960;14.836;2023-05-20T03:23:06;19.70;99.90
31725;DHT22;18306;40.960;14.836;2023-05-20T03:25:36;19.70;99.90
31725;DHT22;18306;40.960;14.836;2023-05-20T03:28:04;19.60;99.90
31725;DHT22;18306;40.960;14.836;2023-05-20T03:30:34;19.40;99.90
31725;DHT22;18306;40.960;14.836;2023-05-20T03:33:02;19.10;99.90
31725;DHT22;18306;40.960;14.836;2023-05-20T03:35:29;19.00;99.90
31725;DHT22;18306;40.960;14.836;2023-05-20T03:37:56;19.00;99.90
31725;DHT22;18306;40.960;14.836;2023-05-20T03:40:25;19.00;99.90
31725;DHT22;18306;40.960;14.836;2023-05-20T03:42:53;18.80;99.90
31725;DHT22;18306;40.960;14.836;2023-05-20T03:45:21;18.70;99.90
31725;DHT22;18306;40.960;14.836;2023-05-20T03:48:02;18.80;99.90
31725;DHT22;18306;40.960;14.836;2023-05-20T03:50:31;18.90;99.90
31725;DHT22;18306;40.960;14.836;2023-05-20T03:53:00;19.00;99.90
31725;DHT22;18306;40.960;14.836;2023-05-20T03:55:30;19.10;99.90
31725;DHT22;18306;40.960;14.836;2023-05-20T03:57:58;19.00;99.90
31725;DHT22;18306;40.960;14.836;2023-05-20T04:00:26;19.10;99.90
31725;DHT22;18306;40.960;14.836;2023-05-20T04:02:53;19.40;99.90
31725;DHT22;18306;40.960;14.836;2023-05-20T04:05:22;19.50;99.90
31725;DHT22;18306;40.960;14.836;2023-05-20T04:07:50;19.40;99.90
31725;DHT22;18306;40.960;14.836;2023-05-20T04:10:19;19.30;99.90
31725;DHT22;18306;40.960;14.836;2023-05-20T04:12:47;19.40;99.90
31725;DHT22;18306;40.960;14.836;2023-05-20T04:15:15;19.30;99.90
31725;DHT22;18306;40.960;14.836;2023-05-20T04:17:54;19.10;99.90
31725;DHT22;18306;40.960;14.836;2023-05-20T04:20:21;18.90;99.90
31725;DHT22;18306;40.960;14.836;2023-05-20T04:22:52;18.90;99.90
31725;DHT22;18306;40.960;14.836;2023-05-20T04:25:21;18.80;99.90
31725;DHT22;18306;40.960;14.836;2023-05-20T04:27:50;18.70;99.90
31725;DHT22;18306;40.960;14.836;2023-05-20T04:30:20;18.50;99.90
31725;DHT22;18306;40.960;14.836;2023-05-20T04:32:48;18.60;99.90
31725;DHT22;18306;40.960;14.836;2023-05-20T04:35:16;18.70;99.90
31725;DHT22;18306;40.960;14.836;2023-05-20T04:37:46;18.80;99.90
31725;DHT22;18306;40.960;14.836;2023-05-20T04:40:19;18.80;99.90
31725;DHT22;18306;40.960;14.836;2023-05-20T04:42:46;18.80;99.90
31725;DHT22;18306;40.960;14.836;2023-05-20T04:45:15;19.10;99.90
31725;DHT22;18306;40.960;14.836;2023-05-20T04:47:42;19.00;99.90
31725;DHT22;18306;40.960;14.836;2023-05-20T04:50:10;18.90;99.90
31725;DHT22;18306;40.960;14.836;2023-05-20T04:52:41;18.70;99.90
31725;DHT22;18306;40.960;14.836;2023-05-20T04:55:15;18.70;99.90
31725;DHT22;18306;40.960;14.836;2023-05-20T04:57:42;18.80;99.90
31725;DHT22;18306;40.960;14.836;2023-05-20T05:00:11;18.90;99.90
31725;DHT22;18306;40.960;14.836;2023-05-20T05:02:39;18.80;99.90
31725;DHT22;18306;40.960;14.836;2023-05-20T05:05:07;18.70;99.90
31725;DHT22;18306;40.960;14.836;2023-05-20T05:07:34;18.50;99.90
31725;DHT22;18306;40.960;14.836;2023-05-20T05:10:01;18.30;99.90
31725;DHT22;18306;40.960;14.836;2023-05-20T05:12:32;18.20;99.90
31725;DHT22;18306;40.960;14.836;2023-05-20T05:15:00;18.10;99.90
31725;DHT22;18306;40.960;14.836;2023-05-20T05:17:28;18.20;99.90
31725;DHT22;18306;40.960;14.836;2023-05-20T05:19:56;18.20;99.90
31725;DHT22;18306;40.960;14.836;2023-05-20T05:25:57;18.30;99.90
31725;DHT22;18306;40.960;14.836;2023-05-20T05:28:24;18.20;99.90
31725;DHT22;18306;40.960;14.836;2023-05-20T05:30:53;18.20;99.90
31725;DHT22;18306;40.960;14.836;2023-05-20T05:33:22;18.10;99.90
31725;DHT22;18306;40.960;14.836;2023-05-20T05:35:49;18.00;99.90
31725;DHT22;18306;40.960;14.836;2023-05-20T05:38:17;18.20;99.90
31725;DHT22;18306;40.960;14.836;2023-05-20T05:40:44;18.30;99.90
31725;DHT22;18306;40.960;14.836;2023-05-20T05:43:11;18.50;99.90
31725;DHT22;18306;40.960;14.836;2023-05-20T05:45:38;18.60;99.90
31725;DHT22;18306;40.960;14.836;2023-05-20T05:48:06;18.70;99.90
31725;DHT22;18306;40.960;14.836;2023-05-20T05:50:34;18.60;99.90
31725;DHT22;18306;40.960;14.836;2023-05-20T05:53:03;18.50;99.90
31725;DHT22;18306;40.960;14.836;2023-05-20T05:55:47;18.40;99.90
31725;DHT22;18306;40.960;14.836;2023-05-20T05:58:35;18.20;99.90
31725;DHT22;18306;40.960;14.836;2023-05-20T06:01:23;18.40;99.90
31725;DHT22;18306;40.960;14.836;2023-05-20T06:04:04;18.40;99.90
31725;DHT22;18306;40.960;14.836;2023-05-20T06:06:41;18.50;99.90
31725;DHT22;18306;40.960;14.836;2023-05-20T06:09:24;18.50;99.90
31725;DHT22;18306;40.960;14.836;2023-05-20T06:11:57;18.50;99.90
31725;DHT22;18306;40.960;14.836;2023-05-20T06:14:32;18.30;99.90
31725;DHT22;18306;40.960;14.836;2023-05-20T06:17:03;18.40;99.90
31725;DHT22;18306;40.960;14.836;2023-05-20T06:19:32;18.50;99.90
31725;DHT22;18306;40.960;14.836;2023-05-20T06:22:01;18.40;99.90
31725;DHT22;18306;40.960;14.836;2023-05-20T06:24:29;18.30;99.90
31725;DHT22;18306;40.960;14.836;2023-05-20T06:26:56;18.50;99.90
31725;DHT22;18306;40.960;14.836;2023-05-20T06:29:24;18.40;99.90
31725;DHT22;18306;40.960;14.836;2023-05-20T06:31:52;18.40;99.90
31725;DHT22;18306;40.960;14.836;2023-05-20T06:34:19;18.30;99.90
31725;DHT22;18306;40.960;14.836;2023-05-20T06:36:46;18.20;99.90
31725;DHT22;18306;40.960;14.836;2023-05-20T06:39:17;18.00;99.90
31725;DHT22;18306;40.960;14.836;2023-05-20T06:41:46;17.80;99.90
31725;DHT22;18306;40.960;14.836;2023-05-20T06:44:19;17.70;99.90
31725;DHT22;18306;40.960;14.836;2023-05-20T06:47:00;17.90;99.90
31725;DHT22;18306;40.960;14.836;2023-05-20T06:49:28;18.20;99.90
31725;DHT22;18306;40.960;14.836;2023-05-20T06:51:55;18.50;99.90
31725;DHT22;18306;40.960;14.836;2023-05-20T06:54:22;18.70;99.90
31725;DHT22;18306;40.960;14.836;2023-05-20T06:56:49;18.60;99.90
31725;DHT22;18306;40.960;14.836;2023-05-20T06:59:16;18.70;99.90
31725;DHT22;18306;40.960;14.836;2023-05-20T07:01:43;18.90;99.90
31725;DHT22;18306;40.960;14.836;2023-05-20T07:04:11;19.10;99.90
31725;DHT22;18306;40.960;14.836;2023-05-20T07:06:39;19.20;99.90
31725;DHT22;18306;40.960;14.836;2023-05-20T07:09:06;19.00;99.90
31725;DHT22;18306;40.960;14.836;2023-05-20T07:11:33;18.90;99.90
31725;DHT22;18306;40.960;14.836;2023-05-20T07:14:00;18.90;99.90
31725;DHT22;18306;40.960;14.836;2023-05-20T07:16:30;18.70;99.90
31725;DHT22;18306;40.960;14.836;2023-05-20T07:18:58;18.80;99.90
31725;DHT22;18306;40.960;14.836;2023-05-20T07:21:26;18.70;99.90
31725;DHT22;18306;40.960;14.836;2023-05-20T07:24:03;18.80;99.90
31725;DHT22;18306;40.960;14.836;2023-05-20T07:26:31;18.80;99.90
31725;DHT22;18306;40.960;14.836;2023-05-20T07:29:03;18.80;99.90
31725;DHT22;18306;40.960;14.836;2023-05-20T07:31:37;18.90;99.90
31725;DHT22;18306;40.960;14.836;2023-05-20T07:34:04;19.10;99.90
31725;DHT22;18306;40.960;14.836;2023-05-20T07:36:32;18.90;99.90
31725;DHT22;18306;40.960;14.836;2023-05-20T07:39:04;18.80;99.90
31725;DHT22;18306;40.960;14.836;2023-05-20T07:41:34;18.90;99.90
31725;DHT22;18306;40.960;14.836;2023-05-20T07:44:03;18.90;99.90
31725;DHT22;18306;40.960;14.836;2023-05-20T07:46:31;19.10;99.90
31725;DHT22;18306;40.960;14.836;2023-05-20T07:49:00;19.10;99.90
31725;DHT22;18306;40.960;14.836;2023-05-20T07:51:28;19.10;99.90
31725;DHT22;18306;40.960;14.836;2023-05-20T07:53:58;19.30;99.90
31725;DHT22;18306;40.960;14.836;2023-05-20T07:56:27;19.60;99.90
31725;DHT22;18306;40.960;14.836;2023-05-20T07:58:58;19.70;99.90
31725;DHT22;18306;40.960;14.836;2023-05-20T08:01:34;19.80;99.90
31725;DHT22;18306;40.960;14.836;2023-05-20T08:04:02;19.80;99.90
31725;DHT22;18306;40.960;14.836;2023-05-20T08:06:29;19.80;99.90
31725;DHT22;18306;40.960;14.836;2023-05-20T08:08:58;19.80;99.90
31725;DHT22;18306;40.960;14.836;2023-05-20T08:11:30;19.70;99.90
31725;DHT22;18306;40.960;14.836;2023-05-20T08:13:58;19.90;99.90
31725;DHT22;18306;40.960;14.836;2023-05-20T08:16:30;19.90;99.90
31725;DHT22;18306;40.960;14.836;2023-05-20T08:18:58;20.00;99.90
31725;DHT22;18306;40.960;14.836;2023-05-20T08:21:25;20.00;99.90
31725;DHT22;18306;40.960;14.836;2023-05-20T08:23:53;20.00;99.90
31725;DHT22;18306;40.960;14.836;2023-05-20T08:26:20;19.90;99.90
31725;DHT22;18306;40.960;14.836;2023-05-20T08:28:47;20.10;99.90
31725;DHT22;18306;40.960;14.836;2023-05-20T08:31:16;20.30;99.90
31725;DHT22;18306;40.960;14.836;2023-05-20T08:33:44;20.30;99.90
31725;DHT22;18306;40.960;14.836;2023-05-20T08:36:12;20.50;99.90
31725;DHT22;18306;40.960;14.836;2023-05-20T08:38:39;20.60;99.90
31725;DHT22;18306;40.960;14.836;2023-05-20T08:41:07;20.60;99.90
31725;DHT22;18306;40.960;14.836;2023-05-20T08:43:37;20.60;99.90
31725;DHT22;18306;40.960;14.836;2023-05-20T08:46:11;20.50;99.90
31725;DHT22;18306;40.960;14.836;2023-05-20T08:48:39;20.00;99.90
31725;DHT22;18306;40.960;14.836;2023-05-20T08:51:08;20.50;99.90
31725;DHT22;18306;40.960;14.836;2023-05-20T08:53:41;20.50;99.90
31725;DHT22;18306;40.960;14.836;2023-05-20T08:56:09;20.50;99.90
31725;DHT22;18306;40.960;14.836;2023-05-20T08:58:37;20.40;99.90
31725;DHT22;18306;40.960;14.836;2023-05-20T09:01:05;20.30;99.90
31725;DHT22;18306;40.960;14.836;2023-05-20T09:03:33;20.30;99.90
31725;DHT22;18306;40.960;14.836;2023-05-20T09:06:07;20.40;99.90
31725;DHT22;18306;40.960;14.836;2023-05-20T09:08:36;20.40;99.90
31725;DHT22;18306;40.960;14.836;2023-05-20T09:11:03;20.50;99.90
31725;DHT22;18306;40.960;14.836;2023-05-20T09:13:30;20.70;99.90
31725;DHT22;18306;40.960;14.836;2023-05-20T09:16:01;20.80;99.90
31725;DHT22;18306;40.960;14.836;2023-05-20T09:18:28;20.90;99.90
31725;DHT22;18306;40.960;14.836;2023-05-20T09:20:56;21.00;99.90
31725;DHT22;18306;40.960;14.836;2023-05-20T09:23:23;21.00;99.90
31725;DHT22;18306;40.960;14.836;2023-05-20T09:25:56;21.10;99.90
31725;DHT22;18306;40.960;14.836;2023-05-20T09:28:26;21.20;99.90
31725;DHT22;18306;40.960;14.836;2023-05-20T09:31:09;21.40;99.90
31725;DHT22;18306;40.960;14.836;2023-05-20T09:33:43;21.40;99.90
31725;DHT22;18306;40.960;14.836;2023-05-20T09:36:10;21.50;99.90
31725;DHT22;18306;40.960;14.836;2023-05-20T09:38:39;21.40;99.90
31725;DHT22;18306;40.960;14.836;2023-05-20T09:41:12;21.60;99.90
31725;DHT22;18306;40.960;14.836;2023-05-20T09:43:41;21.70;99.90
31725;DHT22;18306;40.960;14.836;2023-05-20T09:46:08;21.60;99.90
31725;DHT22;18306;40.960;14.836;2023-05-20T09:48:37;21.60;99.90
31725;DHT22;18306;40.960;14.836;2023-05-20T09:51:05;21.50;99.90
31725;DHT22;18306;40.960;14.836;2023-05-20T09:53:35;21.60;99.90
31725;DHT22;18306;40.960;14.836;2023-05-20T09:56:02;21.30;99.90
31725;DHT22;18306;40.960;14.836;2023-05-20T09:58:30;21.30;99.90
31725;DHT22;18306;40.960;14.836;2023-05-20T10:00:59;21.20;99.90
31725;DHT22;18306;40.960;14.836;2023-05-20T10:03:37;21.10;99.90
31725;DHT22;18306;40.960;14.836;2023-05-20T10:19:58;20.60;99.90
31725;DHT22;18306;40.960;14.836;2023-05-20T10:22:28;20.60;99.90
31725;DHT22;18306;40.960;14.836;2023-05-20T10:25:25;20.50;99.90
31725;DHT22;18306;40.960;14.836;2023-05-20T10:28:05;20.40;99.90
31725;DHT22;18306;40.960;14.836;2023-05-20T10:30:33;20.50;99.90
31725;DHT22;18306;40.960;14.836;2023-05-20T10:33:05;20.40;99.90
31725;DHT22;18306;40.960;14.836;2023-05-20T10:35:32;20.50;99.90
31725;DHT22;18306;40.960;14.836;2023-05-20T10:38:11;20.70;99.90
31725;DHT22;18306;40.960;14.836;2023-05-20T10:40:38;20.90;99.90
31725;DHT22;18306;40.960;14.836;2023-05-20T10:43:24;20.90;99.90
31725;DHT22;18306;40.960;14.836;2023-05-20T10:45:56;21.10;99.90
31725;DHT22;18306;40.960;14.836;2023-05-20T10:48:28;21.10;99.90
31725;DHT22;18306;40.960;14.836;2023-05-20T10:50:58;21.00;99.90
31725;DHT22;18306;40.960;14.836;2023-05-20T10:53:36;21.10;99.90
31725;DHT22;18306;40.960;14.836;2023-05-20T10:56:04;21.10;99.90
31725;DHT22;18306;40.960;14.836;2023-05-20T10:58:38;21.10;99.90
31725;DHT22;18306;40.960;14.836;2023-05-20T11:01:07;21.10;99.90
31725;DHT22;18306;40.960;14.836;2023-05-20T11:03:36;21.00;99.90
31725;DHT22;18306;40.960;14.836;2023-05-20T11:06:16;20.80;99.90
31725;DHT22;18306;40.960;14.836;2023-05-20T11:08:45;20.80;99.90
31725;DHT22;18306;40.960;14.836;2023-05-20T11:11:12;20.90;99.90
31725;DHT22;18306;40.960;14.836;2023-05-20T11:13:44;20.90;99.90
31725;DHT22;18306;40.960;14.836;2023-05-20T11:16:12;20.70;99.90
31725;DHT22;18306;40.960;14.836;2023-05-20T11:18:39;20.60;99.90
31725;DHT22;18306;40.960;14.836;2023-05-20T11:21:08;20.60;99.90
31725;DHT22;18306;40.960;14.836;2023-05-20T11:23:36;20.70;99.90
31725;DHT22;18306;40.960;14.836;2023-05-20T11:26:03;20.60;99.90
31725;DHT22;18306;40.960;14.836;2023-05-20T11:28:31;20.70;99.90
31725;DHT22;18306;40.960;14.836;2023-05-20T11:30:59;20.60;99.90
31725;DHT22;18306;40.960;14.836;2023-05-20T11:33:26;20.50;99.90
31725;DHT22;18306;40.960;14.836;2023-05-20T11:35:56;20.40;99.90
31725;DHT22;18306;40.960;14.836;2023-05-20T11:38:23;20.30;99.90
31725;DHT22;18306;40.960;14.836;2023-05-20T11:40:52;20.20;99.90
31725;DHT22;18306;40.960;14.836;2023-05-20T11:46:27;20.00;99.90
31725;DHT22;18306;40.960;14.836;2023-05-20T11:48:55;20.00;99.90
31725;DHT22;18306;40.960;14.836;2023-05-20T11:51:26;19.90;99.90
31725;DHT22;18306;40.960;14.836;2023-05-20T11:54:05;19.80;99.90
31725;DHT22;18306;40.960;14.836;2023-05-20T11:56:34;19.70;99.90
31725;DHT22;18306;40.960;14.836;2023-05-20T11:59:05;19.80;99.90
31725;DHT22;18306;40.960;14.836;2023-05-20T12:01:35;19.70;99.90
31725;DHT22;18306;40.960;14.836;2023-05-20T12:04:13;19.80;99.90
31725;DHT22;18306;40.960;14.836;2023-05-20T12:06:44;20.10;99.90
31725;DHT22;18306;40.960;14.836;2023-05-20T12:09:12;20.20;99.90
31725;DHT22;18306;40.960;14.836;2023-05-20T12:11:43;20.40;99.90
31725;DHT22;18306;40.960;14.836;2023-05-20T12:14:11;20.30;99.90
31725;DHT22;18306;40.960;14.836;2023-05-20T12:16:39;20.40;99.90
31725;DHT22;18306;40.960;14.836;2023-05-20T12:19:06;20.60;99.90
31725;DHT22;18306;40.960;14.836;2023-05-20T12:21:34;20.80;99.90
31725;DHT22;18306;40.960;14.836;2023-05-20T12:24:01;20.80;99.90
31725;DHT22;18306;40.960;14.836;2023-05-20T12:26:31;20.80;99.90
31725;DHT22;18306;40.960;14.836;2023-05-20T12:29:02;20.70;99.90
31725;DHT22;18306;40.960;14.836;2023-05-20T12:31:31;20.70;99.90
31725;DHT22;18306;40.960;14.836;2023-05-20T12:33:58;20.70;99.90
31725;DHT22;18306;40.960;14.836;2023-05-20T12:36:25;20.80;99.90
31725;DHT22;18306;40.960;14.836;2023-05-20T12:38:54;20.90;99.90
31725;DHT22;18306;40.960;14.836;2023-05-20T12:41:21;20.90;99.90
31725;DHT22;18306;40.960;14.836;2023-05-20T12:43:51;20.80;99.90
31725;DHT22;18306;40.960;14.836;2023-05-20T12:46:19;20.60;99.90
31725;DHT22;18306;40.960;14.836;2023-05-20T12:48:47;20.60;99.90
31725;DHT22;18306;40.960;14.836;2023-05-20T12:51:14;20.60;99.90
31725;DHT22;18306;40.960;14.836;2023-05-20T12:53:41;20.60;99.90
31725;DHT22;18306;40.960;14.836;2023-05-20T12:56:10;20.50;99.90
31725;DHT22;18306;40.960;14.836;2023-05-20T12:58:37;20.40;99.90
31725;DHT22;18306;40.960;14.836;2023-05-20T13:01:04;20.40;99.90
31725;DHT22;18306;40.960;14.836;2023-05-20T13:03:32;20.40;99.90
31725;DHT22;18306;40.960;14.836;2023-05-20T13:05:59;20.50;99.90
31725;DHT22;18306;40.960;14.836;2023-05-20T13:08:26;20.40;99.90
31725;DHT22;18306;40.960;14.836;2023-05-20T13:10:54;20.40;99.90
31725;DHT22;18306;40.960;14.836;2023-05-20T13:13:29;20.40;99.90
31725;DHT22;18306;40.960;14.836;2023-05-20T13:16:07;20.60;99.90
31725;DHT22;18306;40.960;14.836;2023-05-20T13:18:37;20.60;99.90
31725;DHT22;18306;40.960;14.836;2023-05-20T13:21:07;20.50;99.90
31725;DHT22;18306;40.960;14.836;2023-05-20T13:23:34;20.50;99.90
31725;DHT22;18306;40.960;14.836;2023-05-20T13:26:02;20.30;99.90
31725;DHT22;18306;40.960;14.836;2023-05-20T13:28:29;20.50;99.90
31725;DHT22;18306;40.960;14.836;2023-05-20T13:30:57;20.50;99.90
31725;DHT22;18306;40.960;14.836;2023-05-20T13:33:24;20.60;99.90
31725;DHT22;18306;40.960;14.836;2023-05-20T13:35:54;20.60;99.90
31725;DHT22;18306;40.960;14.836;2023-05-20T13:38:21;20.60;99.90
31725;DHT22;18306;40.960;14.836;2023-05-20T13:40:48;20.70;99.90
31725;DHT22;18306;40.960;14.836;2023-05-20T13:43:15;20.80;99.90
31725;DHT22;18306;40.960;14.836;2023-05-20T13:45:43;20.90;99.90
31725;DHT22;18306;40.960;14.836;2023-05-20T13:48:10;21.00;99.90
31725;DHT22;18306;40.960;14.836;2023-05-20T13:50:39;21.00;99.90
31725;DHT22;18306;40.960;14.836;2023-05-20T13:53:07;20.90;99.90
31725;DHT22;18306;40.960;14.836;2023-05-20T13:55:41;20.90;99.90
31725;DHT22;18306;40.960;14.836;2023-05-20T13:58:12;20.50;99.90
31725;DHT22;18306;40.960;14.836;2023-05-20T14:00:44;20.70;99.90
31725;DHT22;18306;40.960;14.836;2023-05-20T14:03:11;20.80;99.90
31725;DHT22;18306;40.960;14.836;2023-05-20T14:05:43;20.90;99.90
31725;DHT22;18306;40.960;14.836;2023-05-20T14:08:16;20.70;99.90
31725;DHT22;18306;40.960;14.836;2023-05-20T14:10:44;20.70;99.90
31725;DHT22;18306;40.960;14.836;2023-05-20T14:13:15;20.80;99.90
31725;DHT22;18306;40.960;14.836;2023-05-20T14:15:43;20.60;99.90
31725;DHT22;18306;40.960;14.836;2023-05-20T14:18:10;20.50;99.90
31725;DHT22;18306;40.960;14.836;2023-05-20T14:20:37;20.60;99.90
31725;DHT22;18306;40.960;14.836;2023-05-20T14:23:08;20.70;99.90
31725;DHT22;18306;40.960;14.836;2023-05-20T14:25:36;20.70;99.90
31725;DHT22;18306;40.960;14.836;2023-05-20T14:28:10;20.90;99.90
31725;DHT22;18306;40.960;14.836;2023-05-20T14:30:39;20.80;99.90
31725;DHT22;18306;40.960;14.836;2023-05-20T14:33:23;20.70;99.90
31725;DHT22;18306;40.960;14.836;2023-05-20T14:35:50;20.80;99.90
31725;DHT22;18306;40.960;14.836;2023-05-20T14:38:18;20.70;99.90
31725;DHT22;18306;40.960;14.836;2023-05-20T14:40:48;20.50;99.90
31725;DHT22;18306;40.960;14.836;2023-05-20T14:43:16;20.50;99.90
31725;DHT22;18306;40.960;14.836;2023-05-20T14:45:43;20.40;99.90
31725;DHT22;18306;40.960;14.836;2023-05-20T14:48:12;20.40;99.90
31725;DHT22;18306;40.960;14.836;2023-05-20T14:50:39;20.40;99.90
31725;DHT22;18306;40.960;14.836;2023-05-20T14:53:06;20.40;99.90
31725;DHT22;18306;40.960;14.836;2023-05-20T14:55:36;20.40;99.90
31725;DHT22;18306;40.960;14.836;2023-05-20T14:58:03;20.20;99.90
31725;DHT22;18306;40.960;14.836;2023-05-20T15:00:30;20.40;99.90
31725;DHT22;18306;40.960;14.836;2023-05-20T15:02:58;20.40;99.90
31725;DHT22;18306;40.960;14.836;2023-05-20T15:05:26;20.30;99.90
31725;DHT22;18306;40.960;14.836;2023-05-20T15:07:54;20.40;99.90
31725;DHT22;18306;40.960;14.836;2023-05-20T15:10:21;20.50;99.90
31725;DHT22;18306;40.960;14.836;2023-05-20T15:12:51;20.50;99.90
31725;DHT22;18306;40.960;14.836;2023-05-20T15:15:20;20.50;99.90
31725;DHT22;18306;40.960;14.836;2023-05-20T15:17:47;20.30;99.90
31725;DHT22;18306;40.960;14.836;2023-05-20T15:20:21;20.20;99.90
31725;DHT22;18306;40.960;14.836;2023-05-20T15:22:49;20.30;99.90
31725;DHT22;18306;40.960;14.836;2023-05-20T15:25:19;20.40;99.90
31725;DHT22;18306;40.960;14.836;2023-05-20T15:27:49;20.20;99.90
31725;DHT22;18306;40.960;14.836;2023-05-20T15:30:54;20.10;99.90
31725;DHT22;18306;40.960;14.836;2023-05-20T15:33:26;20.00;99.90
31725;DHT22;18306;40.960;14.836;2023-05-20T15:35:54;20.10;99.90
31725;DHT22;18306;40.960;14.836;2023-05-20T15:38:22;20.00;99.90
31725;DHT22;18306;40.960;14.836;2023-05-20T15:40:49;20.10;99.90
31725;DHT22;18306;40.960;14.836;2023-05-20T15:43:17;20.20;99.90
31725;DHT22;18306;40.960;14.836;2023-05-20T15:45:48;20.10;99.90
31725;DHT22;18306;40.960;14.836;2023-05-20T15:48:17;20.10;99.90